Create Tblcommutelog Verified Points Advance Search
| # | Trip ID | Id Commuter | Trip Date | Trip Num | Current Lat | Current Lng | Delta Distance | Current Time | Activity | Activity Confidence | Current Speed | |
|---|---|---|---|---|---|---|---|---|---|---|---|---|
| 69481 | 250529_780745_16648422_1634 | 780745 | (not set) | (not set) | 38.898398403604 | -77.089234049371 | 3.4983 | 2025-05-29 20:59:55.252 | in_vehicle | 100 | 12.405339436909 | |
| 69482 | 250529_700992_16557105_1603 | 700992 | (not set) | (not set) | 39.173890377252 | -77.245809306443 | 17.223 | 2025-05-29 20:59:56.123 | in_vehicle | 100 | 10.18802471233 | |
| 69483 | 250529_751043_16617307_1654 | 751043 | (not set) | (not set) | 38.91475344474 | -76.999986526724 | 0.7891 | 2025-05-29 20:59:56.666 | on_bicycle | 100 | -0.44703925898772 | |
| 69484 | 250529_776960_16644495_1619 | 776960 | (not set) | (not set) | 39.108557582201 | -76.699610033749 | 23.4505 | 2025-05-29 20:59:57.311 | in_vehicle | 100 | 17.720636226273 | |
| 69485 | 250529_784462_16652399_1657 | 784462 | (not set) | (not set) | 38.9905133 | -76.8555238 | 0.3546 | 2025-05-29 20:59:57.358 | on_bicycle | 100 | 3.5450213237727 | |
| 69486 | 250529_784389_16652315_1628 | 784389 | (not set) | (not set) | 38.898160501962 | -77.090397722948 | 0.8984 | 2025-05-29 20:59:57.799 | still | 33 | -0.44703925898772 | |
| 69487 | 250529_784389_16652315_1628 | 784389 | (not set) | (not set) | 38.898160501962 | -77.090397722948 | 3.4233 | 2025-05-29 20:59:57.86 | still | 33 | -0.44703925898772 | |
| 69488 | 250529_746794_16612705_1654 | 746794 | (not set) | (not set) | 38.879532747317 | -77.137161967328 | 4.8325 | 2025-05-29 20:59:58.265 | in_vehicle | 100 | 12.977549688414 | |
| 69489 | 250529_773849_16641237_1647 | 773849 | (not set) | (not set) | 38.940265129213 | -76.997484516973 | 3.9791 | 2025-05-29 20:59:58.98 | in_vehicle | 100 | -0.44703925898772 | |
| 69490 | 250529_777830_16645457_1630 | 777830 | (not set) | (not set) | 38.885323579911 | -77.157546780235 | 8.6177 | 2025-05-29 20:59:59.372 | on_foot | 100 | 0.5900918218638 | |
| 69491 | 250529_780745_16648422_1634 | 780745 | (not set) | (not set) | 38.897880270881 | -77.093484996241 | 3.7302 | 2025-05-29 21:00:08.203 | in_vehicle | 100 | 12.548391999785 | |
| 69492 | 250529_751043_16617307_1654 | 751043 | (not set) | (not set) | 38.9158954448 | -76.999699113409 | 0.8969 | 2025-05-29 21:00:08.475 | on_bicycle | 100 | -0.44703925898772 | |
| 69493 | 250529_784462_16652399_1657 | 784462 | (not set) | (not set) | 38.9912869 | -76.8616432 | 0.6898 | 2025-05-29 21:01:00.21 | on_bicycle | 100 | 3.6701923162892 | |
| 69494 | 250529_780745_16648422_1634 | 780745 | (not set) | (not set) | 38.890345061094 | -77.105481834398 | 4.6061 | 2025-05-29 21:01:00.273 | in_vehicle | 100 | 11.412912281957 | |
| 69495 | 250529_784104_16651957_1610 | 784104 | (not set) | (not set) | 39.120770192372 | -77.163257601852 | 17.2762 | 2025-05-29 21:01:00.377 | on_foot | 100 | 0.57221025150429 | |
| 69496 | 250529_769460_16636522_1631 | 769460 | (not set) | (not set) | 38.916900032448 | -77.025568314423 | 2.6801 | 2025-05-29 21:01:00.423 | on_foot | 100 | 0.38445376272944 | |
| 69497 | 250529_780947_16648617_1638 | 780947 | (not set) | (not set) | 38.888808514809 | -77.028503780175 | 1.1376 | 2025-05-29 21:01:00.587 | in_vehicle | 100 | -0.44703925898772 | |
| 69498 | 250529_785696_16653865_1657 | 785696 | (not set) | (not set) | 39.221783399351 | -76.641244493382 | 1.2575 | 2025-05-29 21:01:01.278 | in_vehicle | 100 | 2.7984657612632 | |
| 69499 | 250529_773849_16641237_1647 | 773849 | (not set) | (not set) | 38.952073835547 | -77.002036686994 | 4.8298 | 2025-05-29 21:01:01.538 | in_vehicle | 100 | -0.44703925898772 | |
| 69500 | 250529_784389_16652315_1628 | 784389 | (not set) | (not set) | 38.890321248762 | -77.105199131254 | 4.4536 | 2025-05-29 21:01:01.764 | in_vehicle | 100 | 11.023988126637 |